createdAt,value
2022-11-30T00:00:34.369Z,42.75
2022-11-30T00:03:08.676Z,42.17
2022-11-30T00:05:41.265Z,42.55
2022-11-30T00:08:14.047Z,42.83
2022-11-30T00:10:46.617Z,41.97
2022-11-30T00:13:19.090Z,44.17
2022-11-30T00:15:52.433Z,41.97
2022-11-30T00:18:25.114Z,41.85
2022-11-30T00:21:02.408Z,42.88
2022-11-30T00:23:37.376Z,45.17
2022-11-30T00:26:13.155Z,41.45
2022-11-30T00:28:46.282Z,42.67
2022-11-30T00:31:19.981Z,51.35
2022-11-30T00:33:52.613Z,45.80
2022-11-30T00:36:25.207Z,43.42
2022-11-30T00:38:57.639Z,42.53
2022-11-30T00:41:30.159Z,41.80
2022-11-30T00:44:02.693Z,42.13
2022-11-30T00:46:35.295Z,43.58
2022-11-30T00:49:08.002Z,43.80
2022-11-30T00:51:40.770Z,45.75
2022-11-30T00:54:13.321Z,46.83
2022-11-30T00:56:46.038Z,45.70
2022-11-30T00:59:18.565Z,44.08
2022-11-30T01:01:51.131Z,43.25
2022-11-30T01:04:23.601Z,43.90
2022-11-30T01:06:56.176Z,44.97
2022-11-30T01:09:28.705Z,45.75
2022-11-30T01:12:01.259Z,44.58
2022-11-30T01:14:33.790Z,46.22
2022-11-30T01:17:06.334Z,45.00
2022-11-30T01:19:38.839Z,45.40
2022-11-30T01:22:11.497Z,46.17
2022-11-30T01:24:44.163Z,46.15
2022-11-30T01:27:16.812Z,46.15
2022-11-30T01:29:49.368Z,44.92
2022-11-30T01:32:22.184Z,44.30
2022-11-30T01:34:54.949Z,43.17
2022-11-30T01:37:30.422Z,44.55
2022-11-30T01:40:02.944Z,45.72
2022-11-30T01:42:38.199Z,46.83
2022-11-30T01:45:13.542Z,45.15
2022-11-30T01:47:53.076Z,46.25
2022-11-30T01:50:32.802Z,48.00
2022-11-30T01:53:09.817Z,45.67
2022-11-30T01:55:47.379Z,43.42
2022-11-30T01:58:26.378Z,45.22
2022-11-30T02:01:00.638Z,45.75
2022-11-30T02:03:40.857Z,45.53
2022-11-30T02:06:14.832Z,48.97
2022-11-30T02:08:47.582Z,46.05
2022-11-30T02:11:20.288Z,46.33
2022-11-30T02:14:18.255Z,45.22
2022-11-30T02:17:19.504Z,48.05
2022-11-30T02:20:09.615Z,44.38
2022-11-30T02:22:52.428Z,46.47
2022-11-30T02:25:26.884Z,47.08
2022-11-30T02:28:16.220Z,33.92
2022-11-30T02:30:52.704Z,47.83
2022-11-30T02:33:29.696Z,50.63
2022-11-30T02:36:06.453Z,48.47
2022-11-30T02:38:40.627Z,50.67
2022-11-30T02:41:13.091Z,49.60
2022-11-30T02:43:45.887Z,49.42
2022-11-30T02:46:40.387Z,50.08
2022-11-30T02:49:24.480Z,51.30
2022-11-30T02:51:58.292Z,48.28
2022-11-30T02:54:30.875Z,49.33
2022-11-30T02:57:03.748Z,49.58
2022-11-30T02:59:36.550Z,49.50
2022-11-30T03:02:09.195Z,48.70
2022-11-30T03:04:42.089Z,46.40
2022-11-30T03:07:14.711Z,47.85
2022-11-30T03:09:47.254Z,48.20
2022-11-30T03:12:19.858Z,47.15
2022-11-30T03:14:52.589Z,48.08
2022-11-30T03:17:25.088Z,48.50
2022-11-30T03:19:57.546Z,46.60
2022-11-30T03:22:30.175Z,49.92
2022-11-30T03:25:02.629Z,47.08
2022-11-30T03:27:35.242Z,48.85
2022-11-30T03:30:08.606Z,49.13
2022-11-30T03:32:41.439Z,48.58
2022-11-30T03:35:13.911Z,49.53
2022-11-30T03:37:47.572Z,50.75
2022-11-30T03:40:20.124Z,48.97
2022-11-30T03:42:52.949Z,52.08
2022-11-30T03:45:25.506Z,49.78
2022-11-30T03:47:58.086Z,51.38
2022-11-30T03:50:30.630Z,52.97
2022-11-30T03:53:03.254Z,53.42
2022-11-30T03:55:35.790Z,53.97
2022-11-30T03:58:08.657Z,54.05
2022-11-30T04:00:41.402Z,53.45
2022-11-30T04:03:14.373Z,51.10
2022-11-30T04:05:47.896Z,52.45
2022-11-30T04:08:20.758Z,54.60
2022-11-30T04:10:55.288Z,54.55
2022-11-30T04:13:29.697Z,51.03
2022-11-30T04:16:02.665Z,51.30
2022-11-30T04:18:37.041Z,52.17
2022-11-30T04:21:10.241Z,51.70
2022-11-30T04:23:43.171Z,53.13
2022-11-30T04:26:17.529Z,50.95
2022-11-30T04:28:50.422Z,52.58
2022-11-30T04:31:23.181Z,53.08
2022-11-30T04:33:56.117Z,52.53
2022-11-30T04:36:29.112Z,53.85
2022-11-30T04:39:02.012Z,52.92
2022-11-30T04:41:34.896Z,53.70
2022-11-30T04:44:08.023Z,53.55
2022-11-30T04:46:40.938Z,53.00
2022-11-30T04:49:13.701Z,52.17
2022-11-30T04:51:46.253Z,54.20
2022-11-30T04:54:19.068Z,54.15
2022-11-30T04:56:51.640Z,52.30
2022-11-30T04:59:24.199Z,53.50
2022-11-30T05:01:56.794Z,53.80
2022-11-30T05:04:29.511Z,56.10
2022-11-30T05:07:01.989Z,54.25
2022-11-30T05:09:34.523Z,54.75
2022-11-30T05:12:07.236Z,52.63
2022-11-30T05:14:39.845Z,53.50
2022-11-30T05:17:12.568Z,52.72
2022-11-30T05:19:45.129Z,53.90
2022-11-30T05:22:17.911Z,54.70
2022-11-30T05:24:50.494Z,55.35
2022-11-30T05:27:23.264Z,56.78
2022-11-30T05:29:55.828Z,55.40
2022-11-30T05:32:28.417Z,56.15
2022-11-30T05:35:00.979Z,54.15
2022-11-30T05:37:33.532Z,52.95
2022-11-30T05:40:07.228Z,54.95
2022-11-30T05:42:39.857Z,53.08
2022-11-30T05:45:12.771Z,49.92
2022-11-30T05:47:45.375Z,52.35
2022-11-30T05:50:18.191Z,53.80
2022-11-30T05:52:56.523Z,53.20
2022-11-30T05:55:30.090Z,53.53
2022-11-30T05:58:02.781Z,55.75
2022-11-30T06:00:35.475Z,55.33
2022-11-30T06:03:08.090Z,56.15
2022-11-30T06:05:40.824Z,53.83
2022-11-30T06:08:13.570Z,56.17
2022-11-30T06:10:46.589Z,57.58
2022-11-30T06:13:19.230Z,59.60
2022-11-30T06:15:51.816Z,58.20
2022-11-30T06:18:24.425Z,58.00
2022-11-30T06:21:08.205Z,60.35
2022-11-30T06:23:40.861Z,60.75
2022-11-30T06:26:13.549Z,57.20
2022-11-30T06:28:48.512Z,56.53
2022-11-30T06:31:21.579Z,54.72
2022-11-30T06:33:57.952Z,56.58
2022-11-30T06:36:35.718Z,54.50
2022-11-30T06:39:10.634Z,54.25
2022-11-30T06:41:43.257Z,56.63
2022-11-30T06:44:15.969Z,54.63
2022-11-30T06:46:48.605Z,54.78
2022-11-30T06:49:21.212Z,54.70
2022-11-30T06:51:54.019Z,54.58
2022-11-30T06:54:26.549Z,54.67
2022-11-30T06:56:59.180Z,54.13
2022-11-30T06:59:31.649Z,52.47
2022-11-30T07:02:08.806Z,52.70
2022-11-30T07:04:43.484Z,51.85
2022-11-30T07:07:16.612Z,51.88
2022-11-30T07:09:50.916Z,50.65
2022-11-30T07:12:24.174Z,51.33
2022-11-30T07:14:56.691Z,49.85
2022-11-30T07:17:29.277Z,50.25
2022-11-30T07:20:01.988Z,49.60
2022-11-30T07:22:34.556Z,54.10
2022-11-30T07:25:23.267Z,50.97
2022-11-30T07:27:56.287Z,53.65
2022-11-30T07:30:31.293Z,59.13
2022-11-30T07:33:04.425Z,69.45
2022-11-30T07:35:36.993Z,62.47
2022-11-30T07:38:10.039Z,61.72
2022-11-30T07:40:42.913Z,60.60
2022-11-30T07:43:16.106Z,57.85
2022-11-30T07:45:53.426Z,65.38
2022-11-30T07:48:26.094Z,61.92
2022-11-30T07:51:10.678Z,60.13
2022-11-30T07:53:43.514Z,59.75
2022-11-30T07:56:18.990Z,59.97
2022-11-30T07:58:55.600Z,57.63
2022-11-30T08:01:32.520Z,57.90
2022-11-30T08:04:06.971Z,57.28
2022-11-30T08:06:39.850Z,57.22
2022-11-30T08:09:17.803Z,59.20
2022-11-30T08:11:52.408Z,56.20
2022-11-30T08:14:25.312Z,52.30
2022-11-30T08:16:57.884Z,55.78
2022-11-30T08:19:30.469Z,56.38
2022-11-30T08:22:03.263Z,54.25
2022-11-30T08:24:36.008Z,55.85
2022-11-30T08:27:08.639Z,55.05
2022-11-30T08:29:41.217Z,50.25
2022-11-30T08:32:13.779Z,49.95
2022-11-30T08:34:48.155Z,52.47
2022-11-30T08:37:21.064Z,55.85
2022-11-30T08:39:53.648Z,56.28
2022-11-30T08:42:26.174Z,56.03
2022-11-30T08:44:59.052Z,54.67
2022-11-30T08:47:31.884Z,51.58
2022-11-30T08:50:04.985Z,50.60
2022-11-30T08:52:37.498Z,54.05
2022-11-30T08:55:10.324Z,56.22
2022-11-30T08:57:43.288Z,56.35
2022-11-30T09:00:17.393Z,54.70
2022-11-30T09:02:50.005Z,57.40
2022-11-30T09:05:23.077Z,55.40
2022-11-30T09:07:55.732Z,53.92
2022-11-30T09:10:28.508Z,56.17
2022-11-30T09:13:01.086Z,57.95
2022-11-30T09:15:34.501Z,57.13
2022-11-30T09:18:07.265Z,55.55
2022-11-30T09:20:39.804Z,53.03
2022-11-30T09:23:12.354Z,49.50
2022-11-30T09:25:45.555Z,48.97
2022-11-30T09:28:18.289Z,45.63
2022-11-30T09:30:52.060Z,47.28
2022-11-30T09:33:26.212Z,43.00
2022-11-30T09:36:01.268Z,45.72
2022-11-30T09:38:34.039Z,41.63
2022-11-30T09:41:15.085Z,39.25
2022-11-30T09:43:56.927Z,38.33
2022-11-30T09:46:37.302Z,38.35
2022-11-30T09:49:24.687Z,38.90
2022-11-30T09:52:01.305Z,39.75
2022-11-30T09:54:44.602Z,38.20
2022-11-30T09:57:22.178Z,39.17
2022-11-30T09:59:59.260Z,35.92
2022-11-30T10:02:38.391Z,34.83
2022-11-30T10:05:17.131Z,35.05
2022-11-30T10:08:00.247Z,34.60
2022-11-30T10:10:51.374Z,31.08
2022-11-30T10:13:30.803Z,32.55
2022-11-30T10:16:11.046Z,27.52
2022-11-30T10:18:52.405Z,23.60
2022-11-30T10:21:52.560Z,21.38
2022-11-30T10:24:53.176Z,19.98
2022-11-30T10:27:37.224Z,20.70
2022-11-30T10:30:20.010Z,20.27
2022-11-30T10:32:59.702Z,19.40
2022-11-30T10:35:41.663Z,20.75
2022-11-30T10:38:21.922Z,18.40
2022-11-30T10:41:02.034Z,19.35
2022-11-30T10:43:44.365Z,17.75
2022-11-30T10:46:26.541Z,18.33
2022-11-30T10:49:08.379Z,17.65
2022-11-30T10:51:44.775Z,17.92
2022-11-30T10:54:21.698Z,15.15
2022-11-30T10:56:54.562Z,16.65
2022-11-30T10:59:41.151Z,15.27
2022-11-30T11:02:46.056Z,13.80
2022-11-30T11:05:30.315Z,15.52
2022-11-30T11:08:20.797Z,13.48
2022-11-30T11:10:53.505Z,12.85
2022-11-30T11:13:43.017Z,12.95
2022-11-30T11:16:15.646Z,13.07
2022-11-30T11:18:57.860Z,12.63
2022-11-30T11:21:30.523Z,14.40
2022-11-30T11:24:10.339Z,13.80
2022-11-30T11:26:51.647Z,14.80
2022-11-30T11:29:32.097Z,14.30
2022-11-30T11:32:23.045Z,14.27
2022-11-30T11:34:59.423Z,13.85
2022-11-30T11:37:38.475Z,13.98
2022-11-30T11:40:16.746Z,13.13
2022-11-30T11:42:54.065Z,24.65
2022-11-30T11:45:32.214Z,54.70
2022-11-30T11:48:12.618Z,16.48
2022-11-30T11:51:08.538Z,15.70
2022-11-30T11:53:59.965Z,15.40
2022-11-30T11:56:37.109Z,15.13
2022-11-30T11:59:11.787Z,16.85
2022-11-30T12:02:03.687Z,18.40
2022-11-30T12:05:10.341Z,21.42
2022-11-30T12:13:27.430Z,24.95
2022-11-30T12:16:01.144Z,23.40
2022-11-30T12:18:47.709Z,25.15
2022-11-30T12:21:30.060Z,25.67
2022-11-30T12:24:13.211Z,23.80
2022-11-30T12:26:51.985Z,22.40
2022-11-30T12:29:30.049Z,22.83
2022-11-30T12:32:25.814Z,23.10
2022-11-30T12:35:15.005Z,21.60
2022-11-30T12:38:07.714Z,19.58
2022-11-30T12:40:56.627Z,19.55
2022-11-30T12:44:00.938Z,18.58
2022-11-30T12:46:56.962Z,18.83
2022-11-30T12:52:25.647Z,19.55
2022-11-30T12:55:20.909Z,19.77
2022-11-30T12:58:10.370Z,19.95
2022-11-30T13:01:05.538Z,19.95
2022-11-30T13:04:09.446Z,18.17
2022-11-30T13:06:49.136Z,18.73
2022-11-30T13:09:31.961Z,17.58
2022-11-30T13:12:12.516Z,17.90
2022-11-30T13:14:47.587Z,18.23
2022-11-30T13:17:20.896Z,17.25
2022-11-30T13:20:00.534Z,15.27
2022-11-30T13:22:57.105Z,13.35
2022-11-30T13:28:49.407Z,14.65
2022-11-30T13:31:27.682Z,15.57
2022-11-30T13:34:01.166Z,16.50
2022-11-30T13:36:50.525Z,17.90
2022-11-30T13:39:25.399Z,17.90
2022-11-30T13:42:04.023Z,18.08
2022-11-30T13:44:40.288Z,17.38
2022-11-30T13:47:29.051Z,17.23
2022-11-30T13:50:22.790Z,18.35
2022-11-30T13:52:59.647Z,17.40
2022-11-30T13:55:50.434Z,16.90
2022-11-30T13:58:23.636Z,16.33
2022-11-30T14:01:17.095Z,17.95
2022-11-30T14:04:21.448Z,17.33
2022-11-30T14:06:56.629Z,18.45
2022-11-30T14:10:00.772Z,17.15
2022-11-30T14:12:35.186Z,18.05
2022-11-30T14:15:34.715Z,18.38
2022-11-30T14:18:09.050Z,18.52
2022-11-30T14:20:50.123Z,18.40
2022-11-30T14:23:30.296Z,19.17
2022-11-30T14:26:11.806Z,17.95
2022-11-30T14:28:54.361Z,16.80
2022-11-30T14:31:35.144Z,17.40
2022-11-30T14:34:22.154Z,17.02
2022-11-30T14:37:00.025Z,16.33
2022-11-30T14:39:36.682Z,17.45
2022-11-30T14:42:26.606Z,16.77
2022-11-30T14:44:59.259Z,17.60
2022-11-30T14:47:34.398Z,17.67
2022-11-30T14:52:44.457Z,17.52
2022-11-30T14:55:35.709Z,17.23
2022-11-30T14:58:41.028Z,17.25
2022-11-30T15:01:19.795Z,17.90
2022-11-30T15:03:56.885Z,17.83
2022-11-30T15:06:33.463Z,18.02
2022-11-30T15:09:13.795Z,17.55
2022-11-30T15:11:50.232Z,17.83
2022-11-30T15:14:23.344Z,18.38
2022-11-30T15:16:58.581Z,18.85
2022-11-30T15:22:06.416Z,19.77
2022-11-30T15:24:40.236Z,14.70
2022-11-30T15:27:19.211Z,18.55
2022-11-30T15:29:59.594Z,18.65
2022-11-30T15:32:32.739Z,18.20
2022-11-30T15:35:06.293Z,18.75
2022-11-30T15:37:42.172Z,18.98
2022-11-30T15:40:18.443Z,19.00
2022-11-30T15:42:51.594Z,19.05
2022-11-30T15:45:31.625Z,19.58
2022-11-30T15:48:30.239Z,20.23
2022-11-30T15:51:04.567Z,23.75
2022-11-30T15:53:53.533Z,23.13
2022-11-30T15:56:29.198Z,39.60
2022-11-30T15:59:05.655Z,24.00
2022-11-30T16:02:14.170Z,24.23
2022-11-30T16:05:10.876Z,29.35
2022-11-30T16:08:00.130Z,18.98
2022-11-30T16:10:37.156Z,17.65
2022-11-30T16:13:21.359Z,18.05
2022-11-30T16:15:54.678Z,18.05
2022-11-30T16:18:29.097Z,18.25
2022-11-30T16:21:03.669Z,18.63
2022-11-30T16:23:37.641Z,18.27
2022-11-30T16:26:35.977Z,19.08
2022-11-30T16:29:07.506Z,21.60
2022-11-30T16:31:40.095Z,19.65
2022-11-30T16:34:13.156Z,22.65
2022-11-30T16:36:45.701Z,22.48
2022-11-30T16:39:18.509Z,21.33
2022-11-30T16:41:51.116Z,48.20
2022-11-30T16:44:26.563Z,36.72
2022-11-30T16:46:59.659Z,27.23
2022-11-30T16:49:32.825Z,21.55
2022-11-30T16:52:05.735Z,27.15
2022-11-30T16:54:38.608Z,24.13
2022-11-30T16:57:11.142Z,19.95
2022-11-30T16:59:43.791Z,19.30
2022-11-30T17:02:21.795Z,19.23
2022-11-30T17:04:56.582Z,25.50
2022-11-30T17:07:29.204Z,24.30
2022-11-30T17:10:02.014Z,22.23
2022-11-30T17:12:35.914Z,25.50
2022-11-30T17:15:19.302Z,31.63
2022-11-30T17:17:51.970Z,50.03
2022-11-30T17:20:25.645Z,44.15
2022-11-30T17:22:58.351Z,57.35
2022-11-30T17:25:32.830Z,61.97
2022-11-30T17:28:05.536Z,65.65
2022-11-30T17:30:40.218Z,42.67
2022-11-30T17:33:12.860Z,39.47
2022-11-30T17:35:46.068Z,26.98
2022-11-30T17:38:19.385Z,25.42
2022-11-30T17:40:52.262Z,25.05
2022-11-30T17:43:26.059Z,22.20
2022-11-30T17:46:04.678Z,21.52
2022-11-30T17:48:39.354Z,22.20
2022-11-30T17:51:13.815Z,21.67
2022-11-30T17:53:47.964Z,22.27
2022-11-30T17:56:20.759Z,22.52
2022-11-30T17:58:53.394Z,23.20
2022-11-30T18:01:28.863Z,27.65
2022-11-30T18:04:02.584Z,31.08
2022-11-30T18:06:35.194Z,31.95
2022-11-30T18:09:07.863Z,27.60
2022-11-30T18:11:40.713Z,24.42
2022-11-30T18:14:13.500Z,25.50
2022-11-30T18:16:46.840Z,23.83
2022-11-30T18:19:19.839Z,25.75
2022-11-30T18:21:52.770Z,30.25
2022-11-30T18:24:25.977Z,29.27
2022-11-30T18:26:59.000Z,27.48
2022-11-30T18:29:31.574Z,29.73
2022-11-30T18:32:04.402Z,41.08
2022-11-30T18:34:37.263Z,27.83
2022-11-30T18:37:10.083Z,23.40
2022-11-30T18:39:42.895Z,24.83
2022-11-30T18:42:17.444Z,29.83
2022-11-30T18:44:50.602Z,31.95
2022-11-30T18:47:23.384Z,26.63
2022-11-30T18:49:55.959Z,25.17
2022-11-30T18:52:29.412Z,21.58
2022-11-30T18:55:03.751Z,22.50
2022-11-30T18:57:36.832Z,20.40
2022-11-30T19:00:10.459Z,22.00
2022-11-30T19:02:45.303Z,22.70
2022-11-30T19:05:34.036Z,21.65
2022-11-30T19:08:12.077Z,30.83
2022-11-30T19:10:45.053Z,42.03
2022-11-30T19:13:18.055Z,45.25
2022-11-30T19:15:51.040Z,31.60
2022-11-30T19:18:23.966Z,24.73
2022-11-30T19:20:57.677Z,22.35
2022-11-30T19:23:30.571Z,24.10
2022-11-30T19:26:06.983Z,25.58
2022-11-30T19:28:42.110Z,29.13
2022-11-30T19:31:19.108Z,23.80
2022-11-30T19:33:55.607Z,24.63
2022-11-30T19:36:30.923Z,25.05
2022-11-30T19:39:04.338Z,25.25
2022-11-30T19:41:37.194Z,27.90
2022-11-30T19:44:14.998Z,27.60
2022-11-30T19:46:47.646Z,33.25
2022-11-30T19:49:20.240Z,28.85
2022-11-30T19:51:52.830Z,29.23
2022-11-30T19:56:43.048Z,30.13
2022-11-30T19:59:15.571Z,32.30
2022-11-30T20:01:48.131Z,34.08
2022-11-30T20:04:21.839Z,34.53
2022-11-30T20:06:55.092Z,37.30
2022-11-30T20:09:28.415Z,35.00
2022-11-30T20:12:01.471Z,35.15
2022-11-30T20:14:34.587Z,35.30
2022-11-30T20:17:08.670Z,33.88
2022-11-30T20:19:41.323Z,35.88
2022-11-30T20:22:14.347Z,38.33
2022-11-30T20:24:47.207Z,35.00
2022-11-30T20:27:24.581Z,40.70
2022-11-30T20:29:58.361Z,44.20
2022-11-30T20:32:31.812Z,40.55
2022-11-30T20:35:05.112Z,46.67
2022-11-30T20:37:37.928Z,43.83
2022-11-30T20:40:11.776Z,39.28
2022-11-30T20:42:44.524Z,35.28
2022-11-30T20:45:17.629Z,34.97
2022-11-30T20:47:50.299Z,35.70
2022-11-30T20:50:23.981Z,35.97
2022-11-30T20:52:56.720Z,35.53
2022-11-30T20:55:29.296Z,35.33
2022-11-30T20:58:01.969Z,34.30
2022-11-30T21:00:34.464Z,33.95
2022-11-30T21:03:07.324Z,32.83
2022-11-30T21:05:40.206Z,33.90
2022-11-30T21:08:12.885Z,34.67
2022-11-30T21:10:48.351Z,33.78
2022-11-30T21:13:21.287Z,35.08
2022-11-30T21:15:54.214Z,34.78
2022-11-30T21:18:30.277Z,35.83
2022-11-30T21:21:13.153Z,34.83
2022-11-30T21:23:48.763Z,36.38
2022-11-30T21:26:27.333Z,34.92
2022-11-30T21:29:06.141Z,34.65
2022-11-30T21:31:39.113Z,34.10
2022-11-30T21:34:12.011Z,34.33
2022-11-30T21:36:44.676Z,33.53
2022-11-30T21:39:17.288Z,33.67
2022-11-30T21:41:49.784Z,33.25
2022-11-30T21:44:22.517Z,33.45
2022-11-30T21:46:55.030Z,33.03
2022-11-30T21:49:28.018Z,34.30
2022-11-30T21:52:00.751Z,33.50
2022-11-30T21:54:33.353Z,33.58
2022-11-30T21:57:06.137Z,31.58
2022-11-30T21:59:38.894Z,31.40
2022-11-30T22:02:12.707Z,32.03
2022-11-30T22:04:45.340Z,33.08
2022-11-30T22:07:17.817Z,30.98
2022-11-30T22:09:51.664Z,32.90
2022-11-30T22:12:24.418Z,33.50
2022-11-30T22:14:56.995Z,33.35
2022-11-30T22:17:29.617Z,31.40
2022-11-30T22:20:02.272Z,30.42
2022-11-30T22:22:34.852Z,31.15
2022-11-30T22:25:08.227Z,31.23
2022-11-30T22:27:40.775Z,31.15
2022-11-30T22:30:13.917Z,30.33
2022-11-30T22:32:46.561Z,29.63
2022-11-30T22:35:19.331Z,31.20
2022-11-30T22:37:51.833Z,29.77
2022-11-30T22:40:25.229Z,29.77
2022-11-30T22:42:58.203Z,29.58
2022-11-30T22:45:33.594Z,28.33
2022-11-30T22:48:06.671Z,28.27
2022-11-30T22:50:40.654Z,28.55
2022-11-30T22:53:13.243Z,30.20
2022-11-30T22:55:48.300Z,29.05
2022-11-30T22:58:21.296Z,29.27
2022-11-30T23:00:55.352Z,30.02
2022-11-30T23:03:28.860Z,30.40
2022-11-30T23:06:01.484Z,30.20
2022-11-30T23:08:34.562Z,30.15
2022-11-30T23:11:11.089Z,30.60
2022-11-30T23:13:44.365Z,29.73
2022-11-30T23:16:17.643Z,29.80
2022-11-30T23:18:54.727Z,29.05
2022-11-30T23:21:30.224Z,27.65
2022-11-30T23:24:05.543Z,28.52
2022-11-30T23:26:38.808Z,28.50
2022-11-30T23:29:14.073Z,28.20
2022-11-30T23:34:22.416Z,29.75
2022-11-30T23:36:55.108Z,29.45
2022-11-30T23:39:27.680Z,30.05
2022-11-30T23:42:00.546Z,30.42
2022-11-30T23:44:33.112Z,30.23
2022-11-30T23:47:06.059Z,30.52
2022-11-30T23:49:38.679Z,30.55
2022-11-30T23:52:11.196Z,29.95
2022-11-30T23:54:43.774Z,28.70
2022-11-30T23:57:16.251Z,29.77
2022-11-30T23:59:48.908Z,28.50
